sensor_id;sensor_type;location;lat;lon;timestamp;temperature;humidity
66102;HTU21D;52883;51.094;5.880;2023-10-31T00:01:03;10.20;118.99
66102;HTU21D;52883;51.094;5.880;2023-10-31T00:03:28;10.19;118.99
66102;HTU21D;52883;51.094;5.880;2023-10-31T00:05:54;10.16;118.99
66102;HTU21D;52883;51.094;5.880;2023-10-31T00:08:19;10.14;118.99
66102;HTU21D;52883;51.094;5.880;2023-10-31T00:10:45;10.14;118.99
66102;HTU21D;52883;51.094;5.880;2023-10-31T00:13:12;10.10;118.99
66102;HTU21D;52883;51.094;5.880;2023-10-31T00:15:37;10.06;118.99
66102;HTU21D;52883;51.094;5.880;2023-10-31T00:18:03;10.06;118.99
66102;HTU21D;52883;51.094;5.880;2023-10-31T00:20:28;10.07;118.99
66102;HTU21D;52883;51.094;5.880;2023-10-31T00:22:54;10.09;118.99
66102;HTU21D;52883;51.094;5.880;2023-10-31T00:25:20;10.11;118.99
66102;HTU21D;52883;51.094;5.880;2023-10-31T00:27:45;10.13;118.99
66102;HTU21D;52883;51.094;5.880;2023-10-31T00:30:11;10.12;118.99
66102;HTU21D;52883;51.094;5.880;2023-10-31T00:32:37;10.13;118.99
66102;HTU21D;52883;51.094;5.880;2023-10-31T00:35:03;10.13;118.99
66102;HTU21D;52883;51.094;5.880;2023-10-31T00:37:28;10.15;118.99
66102;HTU21D;52883;51.094;5.880;2023-10-31T00:39:54;10.14;118.99
66102;HTU21D;52883;51.094;5.880;2023-10-31T00:42:20;10.12;118.99
66102;HTU21D;52883;51.094;5.880;2023-10-31T00:44:45;10.09;118.99
66102;HTU21D;52883;51.094;5.880;2023-10-31T00:47:11;10.08;118.99
66102;HTU21D;52883;51.094;5.880;2023-10-31T00:49:36;10.12;118.99
66102;HTU21D;52883;51.094;5.880;2023-10-31T00:52:02;10.15;118.99
66102;HTU21D;52883;51.094;5.880;2023-10-31T00:54:28;10.16;118.99
66102;HTU21D;52883;51.094;5.880;2023-10-31T00:56:53;10.15;118.99
66102;HTU21D;52883;51.094;5.880;2023-10-31T00:59:19;10.12;118.99
66102;HTU21D;52883;51.094;5.880;2023-10-31T01:01:44;10.10;118.99
66102;HTU21D;52883;51.094;5.880;2023-10-31T01:04:10;10.09;118.99
66102;HTU21D;52883;51.094;5.880;2023-10-31T01:06:41;10.11;118.99
66102;HTU21D;52883;51.094;5.880;2023-10-31T01:09:07;10.11;118.99
66102;HTU21D;52883;51.094;5.880;2023-10-31T01:11:33;10.12;118.99
66102;HTU21D;52883;51.094;5.880;2023-10-31T01:13:59;10.13;118.99
66102;HTU21D;52883;51.094;5.880;2023-10-31T01:16:24;10.13;118.99
66102;HTU21D;52883;51.094;5.880;2023-10-31T01:18:50;10.16;118.99
66102;HTU21D;52883;51.094;5.880;2023-10-31T01:21:15;10.19;118.99
66102;HTU21D;52883;51.094;5.880;2023-10-31T01:23:41;10.20;118.99
66102;HTU21D;52883;51.094;5.880;2023-10-31T01:26:06;10.22;118.99
66102;HTU21D;52883;51.094;5.880;2023-10-31T01:28:32;10.21;118.99
66102;HTU21D;52883;51.094;5.880;2023-10-31T01:30:57;10.22;118.99
66102;HTU21D;52883;51.094;5.880;2023-10-31T01:33:23;10.22;118.99
66102;HTU21D;52883;51.094;5.880;2023-10-31T01:35:49;10.24;118.99
66102;HTU21D;52883;51.094;5.880;2023-10-31T01:38:14;10.26;118.99
66102;HTU21D;52883;51.094;5.880;2023-10-31T01:40:40;10.27;118.99
66102;HTU21D;52883;51.094;5.880;2023-10-31T01:43:06;10.25;118.99
66102;HTU21D;52883;51.094;5.880;2023-10-31T01:45:31;10.26;118.99
66102;HTU21D;52883;51.094;5.880;2023-10-31T01:47:58;10.25;118.99
66102;HTU21D;52883;51.094;5.880;2023-10-31T01:50:24;10.22;118.99
66102;HTU21D;52883;51.094;5.880;2023-10-31T01:52:51;10.21;118.99
66102;HTU21D;52883;51.094;5.880;2023-10-31T01:55:18;10.22;118.99
66102;HTU21D;52883;51.094;5.880;2023-10-31T01:57:48;10.21;118.99
66102;HTU21D;52883;51.094;5.880;2023-10-31T02:00:15;10.22;118.99
66102;HTU21D;52883;51.094;5.880;2023-10-31T02:02:41;10.23;118.99
66102;HTU21D;52883;51.094;5.880;2023-10-31T02:05:10;10.23;118.99
66102;HTU21D;52883;51.094;5.880;2023-10-31T02:07:36;10.22;118.99
66102;HTU21D;52883;51.094;5.880;2023-10-31T02:10:01;10.24;118.99
66102;HTU21D;52883;51.094;5.880;2023-10-31T02:12:35;10.24;118.99
66102;HTU21D;52883;51.094;5.880;2023-10-31T02:15:01;10.23;118.99
66102;HTU21D;52883;51.094;5.880;2023-10-31T02:17:28;10.23;118.99
66102;HTU21D;52883;51.094;5.880;2023-10-31T02:19:54;10.24;118.99
66102;HTU21D;52883;51.094;5.880;2023-10-31T02:22:20;10.24;118.99
66102;HTU21D;52883;51.094;5.880;2023-10-31T02:24:45;10.26;118.99
66102;HTU21D;52883;51.094;5.880;2023-10-31T02:27:12;10.27;118.99
66102;HTU21D;52883;51.094;5.880;2023-10-31T02:29:39;10.28;118.99
66102;HTU21D;52883;51.094;5.880;2023-10-31T02:32:05;10.26;118.99
66102;HTU21D;52883;51.094;5.880;2023-10-31T02:34:30;10.26;118.99
66102;HTU21D;52883;51.094;5.880;2023-10-31T02:36:56;10.25;118.99
66102;HTU21D;52883;51.094;5.880;2023-10-31T02:39:21;10.24;118.99
66102;HTU21D;52883;51.094;5.880;2023-10-31T02:41:47;10.25;118.99
66102;HTU21D;52883;51.094;5.880;2023-10-31T02:44:15;10.27;118.99
66102;HTU21D;52883;51.094;5.880;2023-10-31T02:46:40;10.25;118.99
66102;HTU21D;52883;51.094;5.880;2023-10-31T02:49:06;10.23;118.99
66102;HTU21D;52883;51.094;5.880;2023-10-31T02:51:32;10.25;118.99
66102;HTU21D;52883;51.094;5.880;2023-10-31T02:53:57;10.25;118.99
66102;HTU21D;52883;51.094;5.880;2023-10-31T02:56:23;10.25;118.99
66102;HTU21D;52883;51.094;5.880;2023-10-31T02:58:48;10.26;118.99
66102;HTU21D;52883;51.094;5.880;2023-10-31T03:01:14;10.27;118.99
66102;HTU21D;52883;51.094;5.880;2023-10-31T03:03:39;10.27;118.99
66102;HTU21D;52883;51.094;5.880;2023-10-31T03:06:05;10.27;118.99
66102;HTU21D;52883;51.094;5.880;2023-10-31T03:08:31;10.27;118.99
66102;HTU21D;52883;51.094;5.880;2023-10-31T03:10:56;10.26;118.99
66102;HTU21D;52883;51.094;5.880;2023-10-31T03:13:22;10.26;118.99
66102;HTU21D;52883;51.094;5.880;2023-10-31T03:15:49;10.27;118.99
66102;HTU21D;52883;51.094;5.880;2023-10-31T03:18:15;10.26;118.99
66102;HTU21D;52883;51.094;5.880;2023-10-31T03:20:44;10.29;118.99
66102;HTU21D;52883;51.094;5.880;2023-10-31T03:23:11;10.30;118.99
66102;HTU21D;52883;51.094;5.880;2023-10-31T03:25:36;10.31;118.99
66102;HTU21D;52883;51.094;5.880;2023-10-31T03:28:03;10.30;118.99
66102;HTU21D;52883;51.094;5.880;2023-10-31T03:30:29;10.30;118.99
66102;HTU21D;52883;51.094;5.880;2023-10-31T03:32:54;10.29;118.99
66102;HTU21D;52883;51.094;5.880;2023-10-31T03:35:20;10.31;118.99
66102;HTU21D;52883;51.094;5.880;2023-10-31T03:37:46;10.34;118.99
66102;HTU21D;52883;51.094;5.880;2023-10-31T03:40:12;10.34;118.99
66102;HTU21D;52883;51.094;5.880;2023-10-31T03:42:38;10.33;118.99
66102;HTU21D;52883;51.094;5.880;2023-10-31T03:45:04;10.31;118.99
66102;HTU21D;52883;51.094;5.880;2023-10-31T03:47:30;10.30;118.99
66102;HTU21D;52883;51.094;5.880;2023-10-31T03:49:56;10.33;118.99
66102;HTU21D;52883;51.094;5.880;2023-10-31T03:52:22;10.34;118.99
66102;HTU21D;52883;51.094;5.880;2023-10-31T03:54:48;10.36;118.99
66102;HTU21D;52883;51.094;5.880;2023-10-31T03:57:13;10.36;118.99
66102;HTU21D;52883;51.094;5.880;2023-10-31T03:59:39;10.36;118.99
66102;HTU21D;52883;51.094;5.880;2023-10-31T04:02:05;10.34;118.99
66102;HTU21D;52883;51.094;5.880;2023-10-31T04:04:31;10.31;118.99
66102;HTU21D;52883;51.094;5.880;2023-10-31T04:06:56;10.30;118.99
66102;HTU21D;52883;51.094;5.880;2023-10-31T04:09:22;10.31;118.99
66102;HTU21D;52883;51.094;5.880;2023-10-31T04:11:47;10.33;118.99
66102;HTU21D;52883;51.094;5.880;2023-10-31T04:14:13;10.31;118.99
66102;HTU21D;52883;51.094;5.880;2023-10-31T04:16:39;10.31;118.99
66102;HTU21D;52883;51.094;5.880;2023-10-31T04:19:05;10.29;118.99
66102;HTU21D;52883;51.094;5.880;2023-10-31T04:21:31;10.26;118.99
66102;HTU21D;52883;51.094;5.880;2023-10-31T04:23:56;10.26;118.99
66102;HTU21D;52883;51.094;5.880;2023-10-31T04:26:22;10.25;118.99
66102;HTU21D;52883;51.094;5.880;2023-10-31T04:28:47;10.23;118.99
66102;HTU21D;52883;51.094;5.880;2023-10-31T04:31:13;10.23;118.99
66102;HTU21D;52883;51.094;5.880;2023-10-31T04:33:38;10.23;118.99
66102;HTU21D;52883;51.094;5.880;2023-10-31T04:36:04;10.22;118.99
66102;HTU21D;52883;51.094;5.880;2023-10-31T04:38:30;10.23;118.99
66102;HTU21D;52883;51.094;5.880;2023-10-31T04:40:55;10.22;118.99
66102;HTU21D;52883;51.094;5.880;2023-10-31T04:43:21;10.21;118.99
66102;HTU21D;52883;51.094;5.880;2023-10-31T04:45:46;10.21;118.99
66102;HTU21D;52883;51.094;5.880;2023-10-31T04:48:13;10.21;118.99
66102;HTU21D;52883;51.094;5.880;2023-10-31T04:50:39;10.20;118.99
66102;HTU21D;52883;51.094;5.880;2023-10-31T04:53:04;10.19;118.99
66102;HTU21D;52883;51.094;5.880;2023-10-31T04:55:30;10.18;118.99
66102;HTU21D;52883;51.094;5.880;2023-10-31T04:57:55;10.15;118.99
66102;HTU21D;52883;51.094;5.880;2023-10-31T05:00:21;10.13;118.99
66102;HTU21D;52883;51.094;5.880;2023-10-31T05:02:47;10.06;118.99
66102;HTU21D;52883;51.094;5.880;2023-10-31T05:05:12;9.95;118.99
66102;HTU21D;52883;51.094;5.880;2023-10-31T05:07:38;9.91;118.99
66102;HTU21D;52883;51.094;5.880;2023-10-31T05:10:03;9.89;118.99
66102;HTU21D;52883;51.094;5.880;2023-10-31T05:12:29;9.88;118.99
66102;HTU21D;52883;51.094;5.880;2023-10-31T05:14:55;9.88;118.99
66102;HTU21D;52883;51.094;5.880;2023-10-31T05:17:20;9.85;118.99
66102;HTU21D;52883;51.094;5.880;2023-10-31T05:19:46;9.81;118.99
66102;HTU21D;52883;51.094;5.880;2023-10-31T05:22:12;9.75;118.99
66102;HTU21D;52883;51.094;5.880;2023-10-31T05:24:37;9.67;118.99
66102;HTU21D;52883;51.094;5.880;2023-10-31T05:27:03;9.63;118.99
66102;HTU21D;52883;51.094;5.880;2023-10-31T05:29:29;9.63;118.99
66102;HTU21D;52883;51.094;5.880;2023-10-31T05:31:55;9.57;118.99
66102;HTU21D;52883;51.094;5.880;2023-10-31T05:34:21;9.60;118.99
66102;HTU21D;52883;51.094;5.880;2023-10-31T05:36:46;9.64;118.99
66102;HTU21D;52883;51.094;5.880;2023-10-31T05:39:12;9.69;118.99
66102;HTU21D;52883;51.094;5.880;2023-10-31T05:41:37;9.76;118.99
66102;HTU21D;52883;51.094;5.880;2023-10-31T05:44:03;9.82;118.99
66102;HTU21D;52883;51.094;5.880;2023-10-31T05:46:29;9.83;118.99
66102;HTU21D;52883;51.094;5.880;2023-10-31T05:48:54;9.86;118.99
66102;HTU21D;52883;51.094;5.880;2023-10-31T05:51:20;9.85;118.99
66102;HTU21D;52883;51.094;5.880;2023-10-31T05:53:47;9.85;118.99
66102;HTU21D;52883;51.094;5.880;2023-10-31T05:56:14;9.86;118.99
66102;HTU21D;52883;51.094;5.880;2023-10-31T05:58:41;9.86;118.99
66102;HTU21D;52883;51.094;5.880;2023-10-31T06:01:07;9.84;118.99
66102;HTU21D;52883;51.094;5.880;2023-10-31T06:03:37;9.80;118.99
66102;HTU21D;52883;51.094;5.880;2023-10-31T06:06:03;9.81;118.99
66102;HTU21D;52883;51.094;5.880;2023-10-31T06:08:28;9.84;118.99
66102;HTU21D;52883;51.094;5.880;2023-10-31T06:10:55;9.88;118.99
66102;HTU21D;52883;51.094;5.880;2023-10-31T06:13:21;9.90;118.99
66102;HTU21D;52883;51.094;5.880;2023-10-31T06:15:47;9.91;118.99
66102;HTU21D;52883;51.094;5.880;2023-10-31T06:18:13;9.95;118.99
66102;HTU21D;52883;51.094;5.880;2023-10-31T06:20:39;9.92;118.99
66102;HTU21D;52883;51.094;5.880;2023-10-31T06:23:05;9.92;118.99
66102;HTU21D;52883;51.094;5.880;2023-10-31T06:25:31;9.91;118.99
66102;HTU21D;52883;51.094;5.880;2023-10-31T06:27:57;9.89;118.99
66102;HTU21D;52883;51.094;5.880;2023-10-31T06:30:22;9.85;118.99
66102;HTU21D;52883;51.094;5.880;2023-10-31T06:32:51;9.88;118.99
66102;HTU21D;52883;51.094;5.880;2023-10-31T06:35:16;9.82;118.99
66102;HTU21D;52883;51.094;5.880;2023-10-31T06:37:42;9.82;118.99
66102;HTU21D;52883;51.094;5.880;2023-10-31T06:40:07;9.79;118.99
66102;HTU21D;52883;51.094;5.880;2023-10-31T06:42:34;9.78;118.99
66102;HTU21D;52883;51.094;5.880;2023-10-31T06:45:00;9.75;118.99
66102;HTU21D;52883;51.094;5.880;2023-10-31T06:47:25;9.74;118.99
66102;HTU21D;52883;51.094;5.880;2023-10-31T06:49:51;9.75;118.99
66102;HTU21D;52883;51.094;5.880;2023-10-31T06:52:16;9.79;118.99
66102;HTU21D;52883;51.094;5.880;2023-10-31T06:54:42;9.80;118.99
66102;HTU21D;52883;51.094;5.880;2023-10-31T06:57:08;9.83;118.99
66102;HTU21D;52883;51.094;5.880;2023-10-31T06:59:34;9.84;118.99
66102;HTU21D;52883;51.094;5.880;2023-10-31T07:02:00;9.88;118.99
66102;HTU21D;52883;51.094;5.880;2023-10-31T07:04:25;9.91;118.99
66102;HTU21D;52883;51.094;5.880;2023-10-31T07:06:51;9.91;118.99
66102;HTU21D;52883;51.094;5.880;2023-10-31T07:09:23;9.90;118.99
66102;HTU21D;52883;51.094;5.880;2023-10-31T07:11:49;9.92;118.99
66102;HTU21D;52883;51.094;5.880;2023-10-31T07:14:14;9.93;118.99
66102;HTU21D;52883;51.094;5.880;2023-10-31T07:16:40;9.94;118.99
66102;HTU21D;52883;51.094;5.880;2023-10-31T07:19:08;9.96;118.99
66102;HTU21D;52883;51.094;5.880;2023-10-31T07:21:33;9.97;118.99
66102;HTU21D;52883;51.094;5.880;2023-10-31T07:23:59;9.99;118.99
66102;HTU21D;52883;51.094;5.880;2023-10-31T07:26:26;10.04;118.99
66102;HTU21D;52883;51.094;5.880;2023-10-31T07:28:52;10.09;118.99
66102;HTU21D;52883;51.094;5.880;2023-10-31T07:31:18;10.13;118.99
66102;HTU21D;52883;51.094;5.880;2023-10-31T07:33:44;10.15;118.99
66102;HTU21D;52883;51.094;5.880;2023-10-31T07:36:11;10.20;118.99
66102;HTU21D;52883;51.094;5.880;2023-10-31T07:38:36;10.25;118.99
66102;HTU21D;52883;51.094;5.880;2023-10-31T07:41:02;10.33;118.99
66102;HTU21D;52883;51.094;5.880;2023-10-31T07:43:28;10.38;118.99
66102;HTU21D;52883;51.094;5.880;2023-10-31T07:45:53;10.39;118.99
66102;HTU21D;52883;51.094;5.880;2023-10-31T07:48:19;10.41;118.99
66102;HTU21D;52883;51.094;5.880;2023-10-31T07:50:44;10.45;118.99
66102;HTU21D;52883;51.094;5.880;2023-10-31T07:53:10;10.49;118.99
66102;HTU21D;52883;51.094;5.880;2023-10-31T07:55:36;10.69;118.99
66102;HTU21D;52883;51.094;5.880;2023-10-31T07:58:01;10.82;118.99
66102;HTU21D;52883;51.094;5.880;2023-10-31T08:00:27;10.79;118.99
66102;HTU21D;52883;51.094;5.880;2023-10-31T08:02:52;10.69;118.99
66102;HTU21D;52883;51.094;5.880;2023-10-31T08:05:18;10.50;118.99
66102;HTU21D;52883;51.094;5.880;2023-10-31T08:07:44;10.42;118.99
66102;HTU21D;52883;51.094;5.880;2023-10-31T08:10:09;10.52;118.99
66102;HTU21D;52883;51.094;5.880;2023-10-31T08:12:35;10.65;118.99
66102;HTU21D;52883;51.094;5.880;2023-10-31T08:15:01;10.72;118.99
66102;HTU21D;52883;51.094;5.880;2023-10-31T08:17:27;10.80;118.99
66102;HTU21D;52883;51.094;5.880;2023-10-31T08:19:52;10.81;118.99
66102;HTU21D;52883;51.094;5.880;2023-10-31T08:22:18;10.77;118.99
66102;HTU21D;52883;51.094;5.880;2023-10-31T08:24:44;10.77;118.99
66102;HTU21D;52883;51.094;5.880;2023-10-31T08:27:11;10.92;118.99
66102;HTU21D;52883;51.094;5.880;2023-10-31T08:29:38;11.12;118.99
66102;HTU21D;52883;51.094;5.880;2023-10-31T08:32:04;11.26;118.99
66102;HTU21D;52883;51.094;5.880;2023-10-31T08:34:30;11.45;118.99
66102;HTU21D;52883;51.094;5.880;2023-10-31T08:36:55;11.55;118.99
66102;HTU21D;52883;51.094;5.880;2023-10-31T08:39:22;11.58;118.99
66102;HTU21D;52883;51.094;5.880;2023-10-31T08:41:55;11.58;118.99
66102;HTU21D;52883;51.094;5.880;2023-10-31T08:44:21;11.76;118.99
66102;HTU21D;52883;51.094;5.880;2023-10-31T08:46:47;11.94;118.99
66102;HTU21D;52883;51.094;5.880;2023-10-31T08:49:14;12.10;118.99
66102;HTU21D;52883;51.094;5.880;2023-10-31T08:51:41;12.19;118.99
66102;HTU21D;52883;51.094;5.880;2023-10-31T08:54:07;12.16;118.99
66102;HTU21D;52883;51.094;5.880;2023-10-31T08:56:32;12.03;118.99
66102;HTU21D;52883;51.094;5.880;2023-10-31T08:58:58;11.98;118.99
66102;HTU21D;52883;51.094;5.880;2023-10-31T09:01:24;12.05;118.99
66102;HTU21D;52883;51.094;5.880;2023-10-31T09:03:49;12.11;118.99
66102;HTU21D;52883;51.094;5.880;2023-10-31T09:06:15;12.30;118.99
66102;HTU21D;52883;51.094;5.880;2023-10-31T09:08:40;12.53;118.99
66102;HTU21D;52883;51.094;5.880;2023-10-31T09:11:06;12.67;118.99
66102;HTU21D;52883;51.094;5.880;2023-10-31T09:13:32;12.76;118.99
66102;HTU21D;52883;51.094;5.880;2023-10-31T09:16:01;12.93;118.99
66102;HTU21D;52883;51.094;5.880;2023-10-31T09:18:26;13.15;118.99
66102;HTU21D;52883;51.094;5.880;2023-10-31T09:20:52;13.32;118.99
66102;HTU21D;52883;51.094;5.880;2023-10-31T09:23:18;13.37;118.99
66102;HTU21D;52883;51.094;5.880;2023-10-31T09:25:44;13.25;118.99
66102;HTU21D;52883;51.094;5.880;2023-10-31T09:28:10;13.22;118.99
66102;HTU21D;52883;51.094;5.880;2023-10-31T09:30:36;13.10;118.99
66102;HTU21D;52883;51.094;5.880;2023-10-31T09:33:01;13.00;118.99
66102;HTU21D;52883;51.094;5.880;2023-10-31T09:35:27;13.02;118.99
66102;HTU21D;52883;51.094;5.880;2023-10-31T09:37:53;13.03;118.99
66102;HTU21D;52883;51.094;5.880;2023-10-31T09:40:19;13.06;118.99
66102;HTU21D;52883;51.094;5.880;2023-10-31T09:42:45;13.15;118.99
66102;HTU21D;52883;51.094;5.880;2023-10-31T09:45:15;13.31;118.99
66102;HTU21D;52883;51.094;5.880;2023-10-31T09:47:41;13.32;118.99
66102;HTU21D;52883;51.094;5.880;2023-10-31T09:50:10;13.36;118.99
66102;HTU21D;52883;51.094;5.880;2023-10-31T09:52:37;13.60;118.99
66102;HTU21D;52883;51.094;5.880;2023-10-31T09:55:04;13.76;118.99
66102;HTU21D;52883;51.094;5.880;2023-10-31T09:57:31;13.86;118.99
66102;HTU21D;52883;51.094;5.880;2023-10-31T09:59:56;13.83;118.99
66102;HTU21D;52883;51.094;5.880;2023-10-31T10:02:22;13.80;118.99
66102;HTU21D;52883;51.094;5.880;2023-10-31T10:04:49;13.82;118.99
66102;HTU21D;52883;51.094;5.880;2023-10-31T10:07:19;13.70;118.99
66102;HTU21D;52883;51.094;5.880;2023-10-31T10:09:48;13.65;118.99
66102;HTU21D;52883;51.094;5.880;2023-10-31T10:12:15;13.53;118.99
66102;HTU21D;52883;51.094;5.880;2023-10-31T10:14:41;13.34;118.99
66102;HTU21D;52883;51.094;5.880;2023-10-31T10:17:19;13.19;118.99
66102;HTU21D;52883;51.094;5.880;2023-10-31T10:19:46;13.11;118.99
66102;HTU21D;52883;51.094;5.880;2023-10-31T10:22:12;13.06;118.99
66102;HTU21D;52883;51.094;5.880;2023-10-31T10:24:41;13.18;118.99
66102;HTU21D;52883;51.094;5.880;2023-10-31T10:27:08;13.38;118.99
66102;HTU21D;52883;51.094;5.880;2023-10-31T10:29:35;13.54;118.99
66102;HTU21D;52883;51.094;5.880;2023-10-31T10:32:01;13.65;118.99
66102;HTU21D;52883;51.094;5.880;2023-10-31T10:34:26;13.78;118.99
66102;HTU21D;52883;51.094;5.880;2023-10-31T10:36:53;13.96;118.99
66102;HTU21D;52883;51.094;5.880;2023-10-31T10:39:22;14.13;118.99
66102;HTU21D;52883;51.094;5.880;2023-10-31T10:41:55;14.27;118.99
66102;HTU21D;52883;51.094;5.880;2023-10-31T10:44:35;14.49;118.99
66102;HTU21D;52883;51.094;5.880;2023-10-31T10:47:04;14.74;118.99
66102;HTU21D;52883;51.094;5.880;2023-10-31T10:49:33;14.93;118.99
66102;HTU21D;52883;51.094;5.880;2023-10-31T10:52:23;15.13;118.99
66102;HTU21D;52883;51.094;5.880;2023-10-31T10:55:20;15.16;118.99
66102;HTU21D;52883;51.094;5.880;2023-10-31T10:58:02;15.24;118.99
66102;HTU21D;52883;51.094;5.880;2023-10-31T11:00:31;15.39;118.99
66102;HTU21D;52883;51.094;5.880;2023-10-31T11:02:57;15.52;118.99
66102;HTU21D;52883;51.094;5.880;2023-10-31T11:05:24;15.74;118.99
66102;HTU21D;52883;51.094;5.880;2023-10-31T11:07:51;15.92;118.99
66102;HTU21D;52883;51.094;5.880;2023-10-31T11:10:18;16.03;118.99
66102;HTU21D;52883;51.094;5.880;2023-10-31T11:12:44;15.85;118.99
66102;HTU21D;52883;51.094;5.880;2023-10-31T11:15:13;15.71;118.99
66102;HTU21D;52883;51.094;5.880;2023-10-31T11:17:45;15.63;118.99
66102;HTU21D;52883;51.094;5.880;2023-10-31T11:20:14;15.59;118.99
66102;HTU21D;52883;51.094;5.880;2023-10-31T11:22:42;15.62;118.99
66102;HTU21D;52883;51.094;5.880;2023-10-31T11:25:15;15.53;118.99
66102;HTU21D;52883;51.094;5.880;2023-10-31T11:27:41;15.34;118.99
66102;HTU21D;52883;51.094;5.880;2023-10-31T11:30:31;15.30;118.99
66102;HTU21D;52883;51.094;5.880;2023-10-31T11:32:58;15.39;118.99
66102;HTU21D;52883;51.094;5.880;2023-10-31T11:35:30;15.25;118.99
66102;HTU21D;52883;51.094;5.880;2023-10-31T11:38:04;15.14;118.99
66102;HTU21D;52883;51.094;5.880;2023-10-31T11:41:19;15.19;118.99
66102;HTU21D;52883;51.094;5.880;2023-10-31T11:43:19;15.30;118.99
66102;HTU21D;52883;51.094;5.880;2023-10-31T11:45:47;15.28;118.99
66102;HTU21D;52883;51.094;5.880;2023-10-31T11:48:15;15.14;118.99
66102;HTU21D;52883;51.094;5.880;2023-10-31T11:50:41;14.82;118.99
66102;HTU21D;52883;51.094;5.880;2023-10-31T11:53:12;14.83;118.99
66102;HTU21D;52883;51.094;5.880;2023-10-31T11:55:46;14.85;118.99
66102;HTU21D;52883;51.094;5.880;2023-10-31T11:58:20;14.89;118.99
66102;HTU21D;52883;51.094;5.880;2023-10-31T12:00:51;14.83;118.99
66102;HTU21D;52883;51.094;5.880;2023-10-31T12:03:19;14.82;118.99
66102;HTU21D;52883;51.094;5.880;2023-10-31T12:05:56;14.85;118.99
66102;HTU21D;52883;51.094;5.880;2023-10-31T12:08:33;14.71;118.99
66102;HTU21D;52883;51.094;5.880;2023-10-31T12:13:51;14.60;118.99
66102;HTU21D;52883;51.094;5.880;2023-10-31T12:16:17;14.60;118.99
66102;HTU21D;52883;51.094;5.880;2023-10-31T12:18:43;14.77;118.99
66102;HTU21D;52883;51.094;5.880;2023-10-31T12:21:09;14.82;118.99
66102;HTU21D;52883;51.094;5.880;2023-10-31T12:23:36;14.66;118.99
66102;HTU21D;52883;51.094;5.880;2023-10-31T12:26:02;14.66;118.99
66102;HTU21D;52883;51.094;5.880;2023-10-31T12:28:27;14.71;118.99
66102;HTU21D;52883;51.094;5.880;2023-10-31T12:30:54;14.73;118.99
66102;HTU21D;52883;51.094;5.880;2023-10-31T12:33:22;15.04;118.99
66102;HTU21D;52883;51.094;5.880;2023-10-31T12:35:56;15.31;118.99
66102;HTU21D;52883;51.094;5.880;2023-10-31T12:38:23;15.75;118.99
66102;HTU21D;52883;51.094;5.880;2023-10-31T12:40:50;16.02;118.99
66102;HTU21D;52883;51.094;5.880;2023-10-31T12:43:17;16.26;118.99
66102;HTU21D;52883;51.094;5.880;2023-10-31T12:45:43;16.57;118.99
66102;HTU21D;52883;51.094;5.880;2023-10-31T12:48:10;16.71;118.99
66102;HTU21D;52883;51.094;5.880;2023-10-31T12:50:38;16.88;118.99
66102;HTU21D;52883;51.094;5.880;2023-10-31T12:53:06;17.10;118.99
66102;HTU21D;52883;51.094;5.880;2023-10-31T12:55:39;17.24;118.99
66102;HTU21D;52883;51.094;5.880;2023-10-31T12:58:05;17.05;118.99
66102;HTU21D;52883;51.094;5.880;2023-10-31T13:00:33;17.05;118.99
66102;HTU21D;52883;51.094;5.880;2023-10-31T13:03:07;17.09;118.99
66102;HTU21D;52883;51.094;5.880;2023-10-31T13:05:37;17.06;118.99
66102;HTU21D;52883;51.094;5.880;2023-10-31T13:08:14;17.00;118.99
66102;HTU21D;52883;51.094;5.880;2023-10-31T13:10:39;16.90;118.99
66102;HTU21D;52883;51.094;5.880;2023-10-31T13:13:05;16.65;118.99
66102;HTU21D;52883;51.094;5.880;2023-10-31T13:15:31;16.36;118.99
66102;HTU21D;52883;51.094;5.880;2023-10-31T13:17:56;16.12;118.99
66102;HTU21D;52883;51.094;5.880;2023-10-31T13:20:22;15.88;118.99
66102;HTU21D;52883;51.094;5.880;2023-10-31T13:22:49;15.84;118.99
66102;HTU21D;52883;51.094;5.880;2023-10-31T13:25:16;15.90;118.99
66102;HTU21D;52883;51.094;5.880;2023-10-31T13:27:43;15.90;118.99
66102;HTU21D;52883;51.094;5.880;2023-10-31T13:30:11;15.88;118.99
66102;HTU21D;52883;51.094;5.880;2023-10-31T13:32:37;15.81;118.99
66102;HTU21D;52883;51.094;5.880;2023-10-31T13:35:04;15.72;118.99
66102;HTU21D;52883;51.094;5.880;2023-10-31T13:37:29;15.58;118.99
66102;HTU21D;52883;51.094;5.880;2023-10-31T13:39:55;15.47;118.99
66102;HTU21D;52883;51.094;5.880;2023-10-31T13:42:21;15.42;118.99
66102;HTU21D;52883;51.094;5.880;2023-10-31T13:44:46;15.33;118.99
66102;HTU21D;52883;51.094;5.880;2023-10-31T13:47:13;15.25;118.99
66102;HTU21D;52883;51.094;5.880;2023-10-31T13:49:39;15.13;118.99
66102;HTU21D;52883;51.094;5.880;2023-10-31T13:52:05;15.08;118.99
66102;HTU21D;52883;51.094;5.880;2023-10-31T13:54:32;15.00;118.99
66102;HTU21D;52883;51.094;5.880;2023-10-31T13:56:57;15.02;118.99
66102;HTU21D;52883;51.094;5.880;2023-10-31T13:59:24;15.21;118.99
66102;HTU21D;52883;51.094;5.880;2023-10-31T14:01:49;15.32;118.99
66102;HTU21D;52883;51.094;5.880;2023-10-31T14:04:15;15.42;118.99
66102;HTU21D;52883;51.094;5.880;2023-10-31T14:06:41;15.34;118.99
66102;HTU21D;52883;51.094;5.880;2023-10-31T14:09:09;15.30;118.99
66102;HTU21D;52883;51.094;5.880;2023-10-31T14:11:35;15.27;118.99
66102;HTU21D;52883;51.094;5.880;2023-10-31T14:14:02;15.22;118.99
66102;HTU21D;52883;51.094;5.880;2023-10-31T14:16:46;15.14;118.99
66102;HTU21D;52883;51.094;5.880;2023-10-31T14:19:12;15.16;118.99
66102;HTU21D;52883;51.094;5.880;2023-10-31T14:21:40;15.11;118.99
66102;HTU21D;52883;51.094;5.880;2023-10-31T14:24:06;14.96;118.99
66102;HTU21D;52883;51.094;5.880;2023-10-31T14:26:34;14.81;118.99
66102;HTU21D;52883;51.094;5.880;2023-10-31T14:29:00;14.52;118.99
66102;HTU21D;52883;51.094;5.880;2023-10-31T14:31:26;14.11;118.99
66102;HTU21D;52883;51.094;5.880;2023-10-31T14:33:51;13.66;118.99
66102;HTU21D;52883;51.094;5.880;2023-10-31T14:36:17;13.33;118.99
66102;HTU21D;52883;51.094;5.880;2023-10-31T14:38:43;13.03;118.99
66102;HTU21D;52883;51.094;5.880;2023-10-31T14:41:08;12.84;118.99
66102;HTU21D;52883;51.094;5.880;2023-10-31T14:43:35;12.71;118.99
66102;HTU21D;52883;51.094;5.880;2023-10-31T14:46:01;12.62;118.99
66102;HTU21D;52883;51.094;5.880;2023-10-31T14:48:27;12.57;118.99
66102;HTU21D;52883;51.094;5.880;2023-10-31T14:50:53;12.55;118.99
66102;HTU21D;52883;51.094;5.880;2023-10-31T14:53:19;12.55;118.99
66102;HTU21D;52883;51.094;5.880;2023-10-31T14:55:55;12.51;118.99
66102;HTU21D;52883;51.094;5.880;2023-10-31T14:58:20;12.53;118.99
66102;HTU21D;52883;51.094;5.880;2023-10-31T15:00:46;12.58;118.99
66102;HTU21D;52883;51.094;5.880;2023-10-31T15:03:11;12.52;118.99
66102;HTU21D;52883;51.094;5.880;2023-10-31T15:05:37;12.44;118.99